Sitka, South Dakota
Current Conditions -  °F | °C
As of 9:52 AM on Friday 28 Nov 2014 (Local Time) from KMBG Reporting Station
Clear Clear  
Wind Chill:   Ceiling: Unl
Heat Index: 20°   Visibility: 10mi
Dew Point: 15°   Wind: 9mph
Humidity: 81%   Direction: 110°ESE
Pressure: 29.7"   Gusts: NA
Location:  45.4184°N, 100.09°W
Report Text: KMBG 281552Z AUTO 11008KT 10SM CLR M07/M09 A2970 RMK AO2 SLP087 T10671094
Loading
Personal Weather Stations






























Interactive Weather Map New forecast layout! Learn more

10-Day Weather Forecast

Advertisements
Track Severe Weather on mobile